Time;durP1;ratioP1;P1;durP2;ratioP2;P2;SDS_P1;SDS_P2;PMS_P1;PMS_P2;Temp;Humidity;BMP_temperature;BMP_pressure;BME280_temperature;BME280_humidity;BME280_pressure;Samples;Min_cycle;Max_cycle;Signal;HPM_P1;HPM_P2
2021/04/18 00:01:07;;;;;;;13.82;8.45;;;8.90;94.40;;;;;;6107643;23;20136;-92
2021/04/18 00:03:57;;;;;;;14.35;8.63;;;8.90;94.40;;;;;;6108428;23;20242;-94
2021/04/18 00:06:45;;;;;;;14.25;8.88;;;8.90;94.50;;;;;;6107227;23;20006;-94
2021/04/18 00:10:03;;;;;;;14.23;9.15;;;8.90;94.50;;;;;;6108235;23;20073;-93
2021/04/18 00:12:34;;;;;;;12.68;7.72;;;8.90;94.40;;;;;;6108230;23;20418;-93
2021/04/18 00:15:21;;;;;;;15.48;9.52;;;9.00;94.60;;;;;;6107901;23;20018;-92
2021/04/18 00:18:00;;;;;;;14.27;9.45;;;9.00;94.40;;;;;;6108162;23;20346;-93
2021/04/18 00:21:13;;;;;;;13.70;8.30;;;9.00;94.40;;;;;;6106961;23;20013;-94
2021/04/18 00:27:13;;;;;;;21.35;8.90;;;9.00;94.30;;;;;;6133370;23;20013;-93
2021/04/18 00:29:43;;;;;;;14.95;8.07;;;9.00;94.20;;;;;;6107910;23;20246;-93
2021/04/18 00:32:12;;;;;;;12.45;8.05;;;9.00;94.10;;;;;;6107982;23;20001;-93
2021/04/18 00:34:38;;;;;;;13.15;9.65;;;9.10;94.10;;;;;;6107706;23;20026;-93
2021/04/18 00:37:03;;;;;;;11.27;8.20;;;9.10;94.10;;;;;;6107356;23;20016;-93
2021/04/18 00:39:29;;;;;;;14.57;9.45;;;9.00;94.10;;;;;;6107796;23;20006;-94
2021/04/18 00:41:55;;;;;;;17.35;9.90;;;9.00;94.10;;;;;;6108151;23;20002;-94
2021/04/18 00:44:29;;;;;;;17.40;9.45;;;9.00;94.10;;;;;;6107631;23;20078;-94
2021/04/18 00:47:00;;;;;;;16.80;9.88;;;9.10;94.10;;;;;;6108067;23;20072;-93
2021/04/18 00:49:31;;;;;;;15.10;8.90;;;9.10;94.10;;;;;;6107787;23;20010;-93
2021/04/18 00:52:15;;;;;;;13.55;8.43;;;9.10;94.20;;;;;;6107523;23;20025;-93
2021/04/18 00:55:27;;;;;;;14.23;9.27;;;9.10;94.20;;;;;;6107441;23;20291;-93
2021/04/18 00:58:38;;;;;;;;;;;;;;;;;;;;;
2021/04/18 01:01:16;;;;;;;14.55;9.05;;;9.10;94.10;;;;;;6132746;23;20026;-92
2021/04/18 01:03:44;;;;;;;16.98;10.18;;;9.10;94.10;;;;;;6107883;23;20111;-92
2021/04/18 01:06:12;;;;;;;14.77;10.10;;;9.10;94.10;;;;;;6107612;23;20013;-93
2021/04/18 01:08:52;;;;;;;14.85;10.13;;;9.10;94.10;;;;;;6107138;23;20014;-93
2021/04/18 01:11:33;;;;;;;12.60;8.98;;;9.10;94.10;;;;;;6107728;23;20088;-92
2021/04/18 01:14:55;;;;;;;;;;;;;;;;;;;;;
2021/04/18 02:23:32;;;;;;;;;;;;;;;;;;;;;
2021/04/18 02:26:28;;;;;;;14.85;9.77;;;8.80;94.30;;;;;;5966003;23;20027;-94
2021/04/18 02:29:31;;;;;;;12.18;8.70;;;8.80;94.40;;;;;;5993382;23;20269;-95
2021/04/18 02:32:11;;;;;;;11.88;8.13;;;8.80;94.30;;;;;;6058482;23;20084;-94
2021/04/18 02:34:55;;;;;;;11.52;8.25;;;8.80;94.30;;;;;;6110211;23;20009;-93
2021/04/18 02:37:58;;;;;;;13.48;9.02;;;8.80;94.30;;;;;;6134515;23;20065;-94
2021/04/18 02:40:46;;;;;;;11.68;8.90;;;8.80;94.30;;;;;;6053172;23;20021;-94
2021/04/18 02:43:23;;;;;;;14.85;10.02;;;8.70;94.30;;;;;;6109417;23;20002;-94
2021/04/18 02:45:59;;;;;;;12.77;9.05;;;8.80;94.30;;;;;;6108194;23;20010;-94
2021/04/18 02:48:44;;;;;;;14.02;10.07;;;8.80;94.40;;;;;;6108442;23;20006;-94
2021/04/18 02:51:44;;;;;;;12.90;9.27;;;8.70;94.40;;;;;;6108645;23;20013;-94
2021/04/18 02:54:56;;;;;;;13.32;8.77;;;8.70;94.40;;;;;;6108473;23;20026;-93
2021/04/18 02:57:40;;;;;;;14.73;9.85;;;8.80;94.50;;;;;;6131669;23;20014;-93
2021/04/18 03:00:15;;;;;;;16.85;9.40;;;8.70;94.40;;;;;;6103598;23;20006;-93
2021/04/18 03:02:46;;;;;;;14.57;9.60;;;8.80;94.50;;;;;;6101229;23;20038;-93
2021/04/18 03:05:15;;;;;;;16.50;9.82;;;8.80;94.40;;;;;;6108892;23;20006;-93
2021/04/18 03:08:37;;;;;;;;;;;;;;;;;;;;;
2021/04/18 03:11:09;;;;;;;15.65;10.45;;;8.80;94.30;;;;;;6098805;23;20046;-93
2021/04/18 03:13:58;;;;;;;16.13;11.60;;;8.80;94.30;;;;;;6107229;23;20042;-93
2021/04/18 03:16:44;;;;;;;18.17;10.38;;;8.80;94.30;;;;;;6107954;23;20076;-93
2021/04/18 03:19:12;;;;;;;15.43;9.25;;;8.80;94.30;;;;;;6106902;23;20017;-93
2021/04/18 03:21:46;;;;;;;15.68;10.70;;;8.80;94.20;;;;;;6108646;23;20002;-92
2021/04/18 03:24:18;;;;;;;16.13;10.90;;;8.90;94.20;;;;;;6108593;23;20065;-93
2021/04/18 03:27:03;;;;;;;16.37;10.80;;;8.90;94.20;;;;;;6108255;23;20021;-93
2021/04/18 03:29:39;;;;;;;16.45;10.25;;;8.80;94.20;;;;;;6108535;23;20010;-93
2021/04/18 03:32:17;;;;;;;16.13;10.18;;;8.90;94.20;;;;;;6108599;23;20069;-93
2021/04/18 03:35:17;;;;;;;16.02;10.60;;;8.90;94.10;;;;;;6105064;23;20113;-93
2021/04/18 03:38:26;;;;;;;14.20;9.13;;;8.90;94.10;;;;;;6102981;23;20406;-93
2021/04/18 03:41:26;;;;;;;20.10;10.25;;;8.90;94.10;;;;;;6108030;23;20005;-93
2021/04/18 03:44:38;;;;;;;16.75;11.45;;;8.90;94.00;;;;;;6105703;23;20006;-93
2021/04/18 03:47:21;;;;;;;15.35;10.75;;;8.80;94.00;;;;;;6108421;23;20088;-93
2021/04/18 03:50:01;;;;;;;16.75;9.35;;;8.80;94.00;;;;;;6105967;23;20018;-94
2021/04/18 03:59:16;;;;;;;14.88;9.73;;;8.70;94.00;;;;;;6133373;23;20025;-93
2021/04/18 04:05:23;;;;;;;15.48;10.43;;;8.60;94.00;;;;;;6114158;23;20100;-94
2021/04/18 04:08:26;;;;;;;17.17;10.35;;;8.50;94.00;;;;;;6107807;23;20097;-95
2021/04/18 04:14:49;;;;;;;17.90;10.43;;;8.50;94.00;;;;;;5987639;24;20384;-93
2021/04/18 04:17:29;;;;;;;13.32;9.98;;;8.40;94.10;;;;;;5963063;24;20005;-93
2021/04/18 04:20:12;;;;;;;15.73;10.32;;;8.30;94.20;;;;;;5965317;24;20008;-93
2021/04/18 04:22:59;;;;;;;15.75;10.10;;;8.20;94.10;;;;;;6034744;23;20022;-93
2021/04/18 04:25:29;;;;;;;14.88;10.40;;;8.20;94.20;;;;;;6048862;23;20034;-94
2021/04/18 04:28:13;;;;;;;14.60;9.52;;;8.10;94.20;;;;;;6069984;23;20034;-94
2021/04/18 04:30:44;;;;;;;16.65;10.85;;;8.10;94.10;;;;;;6072312;23;20010;-93
2021/04/18 04:33:46;;;;;;;18.10;10.88;;;8.10;94.20;;;;;;6048541;23;20022;-93
2021/04/18 04:36:23;;;;;;;15.60;10.05;;;8.00;94.40;;;;;;6101780;23;20010;-93
2021/04/18 04:38:57;;;;;;;16.08;11.27;;;8.00;94.30;;;;;;6107912;23;20262;-93
2021/04/18 04:41:45;;;;;;;16.00;10.48;;;8.10;94.40;;;;;;6107845;23;20002;-93
2021/04/18 04:44:19;;;;;;;16.33;10.73;;;8.10;94.40;;;;;;6107528;23;20350;-92
2021/04/18 04:46:45;;;;;;;20.10;11.18;;;8.00;94.40;;;;;;6107988;23;20029;-93
2021/04/18 04:49:22;;;;;;;17.58;11.23;;;8.00;94.50;;;;;;6106512;23;20044;-93
2021/04/18 04:51:53;;;;;;;18.30;10.63;;;8.00;94.50;;;;;;6107710;23;20017;-93
2021/04/18 04:54:18;;;;;;;13.50;10.30;;;8.00;94.50;;;;;;6107480;23;20061;-92
2021/04/18 04:56:54;;;;;;;15.63;10.88;;;8.00;94.50;;;;;;6106399;23;20013;-91
2021/04/18 04:59:20;;;;;;;22.75;11.43;;;8.00;94.60;;;;;;6107207;23;20012;-91
2021/04/18 05:01:48;;;;;;;19.65;12.27;;;8.00;94.60;;;;;;6107689;23;20325;-91
2021/04/18 05:04:18;;;;;;;18.35;11.35;;;8.00;94.60;;;;;;6107216;23;20478;-91
2021/04/18 05:06:44;;;;;;;21.25;12.00;;;8.00;94.70;;;;;;6106489;23;20017;-91
2021/04/18 05:09:13;;;;;;;18.50;11.25;;;8.00;94.80;;;;;;6107823;23;20305;-91
2021/04/18 05:11:54;;;;;;;21.40;10.38;;;8.00;94.90;;;;;;6107465;23;20010;-92
2021/04/18 05:14:21;;;;;;;18.23;11.57;;;8.10;94.90;;;;;;6107155;23;20006;-92
2021/04/18 05:16:50;;;;;;;17.42;12.80;;;8.00;95.00;;;;;;6107435;23;20002;-91
2021/04/18 05:19:20;;;;;;;17.30;11.70;;;8.10;95.10;;;;;;6107121;23;20101;-92
2021/04/18 05:21:46;;;;;;;19.48;11.27;;;8.20;95.20;;;;;;6107164;23;20044;-91
2021/04/18 05:24:25;;;;;;;21.38;13.45;;;8.20;95.30;;;;;;6107204;23;20006;-92
2021/04/18 05:26:54;;;;;;;23.75;11.48;;;8.30;95.30;;;;;;6107556;23;20130;-91
2021/04/18 05:29:24;;;;;;;18.98;11.70;;;8.30;95.30;;;;;;6107386;23;20033;-92
2021/04/18 05:31:57;;;;;;;19.55;12.43;;;8.40;95.40;;;;;;6107783;23;20342;-91
2021/04/18 05:34:29;;;;;;;19.77;13.70;;;8.50;95.30;;;;;;6106968;23;20013;-92
2021/04/18 05:37:00;;;;;;;21.83;12.65;;;8.50;95.10;;;;;;6103913;23;20030;-92
2021/04/18 05:39:25;;;;;;;27.73;13.95;;;8.50;95.10;;;;;;6104535;23;20010;-91
2021/04/18 05:41:56;;;;;;;16.77;11.52;;;8.60;94.90;;;;;;6107256;23;20002;-92
2021/04/18 05:44:27;;;;;;;16.52;12.02;;;8.70;94.90;;;;;;6107076;23;20006;-92
2021/04/18 05:46:58;;;;;;;25.30;14.43;;;8.60;94.90;;;;;;6107636;23;20006;-92
2021/04/18 05:49:29;;;;;;;23.13;13.25;;;8.60;94.80;;;;;;6107753;23;20334;-91
2021/04/18 05:52:20;;;;;;;23.70;13.45;;;8.50;95.20;;;;;;6107208;23;20009;-91
2021/04/18 05:58:23;;;;;;;27.83;16.75;;;8.40;95.40;;;;;;6132716;23;20043;-93
2021/04/18 06:00:55;;;;;;;25.25;15.00;;;8.40;95.60;;;;;;6107288;23;20353;-92
2021/04/18 06:03:20;;;;;;;26.05;14.85;;;8.40;95.60;;;;;;6107746;23;20009;-91
2021/04/18 06:05:46;;;;;;;26.73;14.23;;;8.40;95.80;;;;;;6107593;23;20006;-91
2021/04/18 06:08:12;;;;;;;26.30;15.25;;;8.50;95.50;;;;;;6107450;23;20287;-91
2021/04/18 06:10:38;;;;;;;22.35;15.48;;;8.60;95.30;;;;;;6106877;23;20102;-91
2021/04/18 06:13:03;;;;;;;24.00;13.80;;;8.70;95.10;;;;;;6107645;23;20002;-91
2021/04/18 06:15:29;;;;;;;26.17;13.88;;;8.70;95.00;;;;;;6107068;23;20012;-92
2021/04/18 06:17:57;;;;;;;20.27;12.05;;;8.70;94.70;;;;;;6107037;23;20043;-92
2021/04/18 06:20:23;;;;;;;20.60;12.70;;;8.70;94.90;;;;;;6107345;23;20037;-91
2021/04/18 06:22:48;;;;;;;20.80;12.32;;;8.70;95.00;;;;;;6107119;23;20006;-92
2021/04/18 06:25:15;;;;;;;19.42;12.15;;;8.70;95.30;;;;;;6107227;23;20073;-91
2021/04/18 06:27:41;;;;;;;16.10;10.52;;;8.80;95.30;;;;;;6107425;23;20009;-89
2021/04/18 06:30:10;;;;;;;17.35;11.65;;;8.90;95.00;;;;;;6106855;23;20006;-91
2021/04/18 06:32:38;;;;;;;17.75;10.80;;;8.90;94.80;;;;;;6107255;23;20012;-92
2021/04/18 06:35:08;;;;;;;15.73;10.98;;;9.00;94.70;;;;;;6107468;23;20088;-92
2021/04/18 06:37:40;;;;;;;13.80;9.48;;;9.00;94.60;;;;;;6109309;23;20010;-90
2021/04/18 06:40:32;;;;;;;18.52;12.68;;;9.00;94.70;;;;;;6109184;23;20326;-92
2021/04/18 06:43:01;;;;;;;15.48;10.43;;;8.90;94.70;;;;;;6108885;23;20041;-91
2021/04/18 06:45:32;;;;;;;15.02;10.88;;;8.90;94.70;;;;;;6109223;23;20006;-92
2021/04/18 06:48:10;;;;;;;18.27;11.10;;;9.00;94.80;;;;;;6108600;23;20017;-91
2021/04/18 06:50:42;;;;;;;18.02;12.60;;;9.00;94.80;;;;;;6105933;23;20014;-92
2021/04/18 06:53:14;;;;;;;19.25;11.93;;;9.00;94.80;;;;;;6108525;23;20014;-92
2021/04/18 06:55:40;;;;;;;19.90;12.50;;;9.00;94.80;;;;;;6109057;23;20081;-91
2021/04/18 06:58:05;;;;;;;17.40;11.43;;;9.10;94.80;;;;;;6108604;23;20006;-91
2021/04/18 07:00:31;;;;;;;22.33;13.00;;;9.10;94.80;;;;;;6108221;23;20081;-92
2021/04/18 07:03:21;;;;;;;16.23;12.13;;;9.20;94.80;;;;;;6108746;23;20013;-92
2021/04/18 07:05:49;;;;;;;23.23;12.70;;;9.30;94.60;;;;;;6108551;23;20006;-91
2021/04/18 07:08:30;;;;;;;22.67;12.85;;;9.30;94.70;;;;;;6108554;23;20010;-91
2021/04/18 07:11:20;;;;;;;19.90;12.32;;;9.40;94.90;;;;;;6108419;23;20008;-91
2021/04/18 07:13:47;;;;;;;19.65;12.02;;;9.40;94.90;;;;;;6107722;23;20010;-91
2021/04/18 07:16:28;;;;;;;21.45;13.00;;;9.50;94.10;;;;;;6109804;23;20002;-91
2021/04/18 07:19:05;;;;;;;20.52;13.93;;;9.60;93.90;;;;;;6108408;23;20334;-91
2021/04/18 07:22:02;;;;;;;22.02;13.95;;;9.70;93.70;;;;;;6108264;23;20013;-90
2021/04/18 07:24:30;;;;;;;22.25;12.25;;;9.70;93.80;;;;;;6096132;23;20005;-91
2021/04/18 07:26:59;;;;;;;19.77;11.75;;;9.70;93.50;;;;;;6108113;23;20079;-91
2021/04/18 07:29:31;;;;;;;22.58;12.63;;;9.80;93.50;;;;;;6108346;23;20009;-92
2021/04/18 07:32:18;;;;;;;25.30;15.43;;;9.90;93.40;;;;;;6108503;23;20017;-91
2021/04/18 07:34:44;;;;;;;25.00;14.40;;;9.90;93.30;;;;;;6107697;23;20010;-91
2021/04/18 07:37:17;;;;;;;19.92;13.02;;;9.90;93.10;;;;;;6108523;23;20307;-92
2021/04/18 07:39:57;;;;;;;24.77;13.40;;;10.00;92.70;;;;;;6107706;23;20022;-91
2021/04/18 07:42:55;;;;;;;22.55;12.43;;;10.10;92.50;;;;;;6108379;23;20002;-92
2021/04/18 07:45:21;;;;;;;18.75;11.05;;;10.10;92.70;;;;;;6108327;23;20007;-92
2021/04/18 07:48:12;;;;;;;23.10;13.30;;;10.20;92.50;;;;;;6107732;23;20057;-92
2021/04/18 07:50:54;;;;;;;26.20;12.95;;;10.10;93.00;;;;;;6108296;23;20002;-92
2021/04/18 07:53:27;;;;;;;22.33;13.33;;;10.10;92.90;;;;;;6107408;23;20010;-92
2021/04/18 07:56:19;;;;;;;28.20;14.65;;;10.20;92.90;;;;;;6105828;23;20014;-91
2021/04/18 07:58:50;;;;;;;23.42;13.73;;;10.20;92.90;;;;;;6107801;23;20006;-91
2021/04/18 08:01:24;;;;;;;27.90;15.02;;;10.20;93.00;;;;;;6107018;23;20006;-92
2021/04/18 08:03:50;;;;;;;26.30;14.65;;;10.20;93.10;;;;;;6108767;23;20338;-90
2021/04/18 08:06:18;;;;;;;20.58;12.38;;;10.20;93.00;;;;;;6109089;23;20006;-91
2021/04/18 08:08:46;;;;;;;25.95;13.25;;;10.00;93.10;;;;;;6108338;23;20073;-91
2021/04/18 08:11:26;;;;;;;24.55;13.32;;;10.00;93.30;;;;;;6107841;23;20010;-90
2021/04/18 08:13:53;;;;;;;23.58;13.65;;;9.90;93.50;;;;;;6108359;23;20006;-91
2021/04/18 08:16:31;;;;;;;19.38;11.27;;;9.90;93.60;;;;;;6107915;23;20276;-91
2021/04/18 08:19:09;;;;;;;17.70;11.27;;;9.90;93.50;;;;;;6107555;23;19998;-91
2021/04/18 08:21:39;;;;;;;17.67;11.18;;;10.00;93.60;;;;;;6107732;23;20077;-91
2021/04/18 08:24:35;;;;;;;17.33;10.82;;;10.00;93.90;;;;;;6108155;23;20016;-91
2021/04/18 08:27:24;;;;;;;20.60;12.45;;;10.10;93.90;;;;;;6108076;23;20246;-93
2021/04/18 08:30:05;;;;;;;24.10;13.05;;;10.30;93.10;;;;;;6108727;23;20010;-91
2021/04/18 08:33:00;;;;;;;18.70;11.52;;;10.40;92.70;;;;;;6109714;23;20006;-91
2021/04/18 08:39:25;;;;;;;19.67;13.15;;;10.60;92.80;;;;;;6132562;23;20350;-92
2021/04/18 08:42:08;;;;;;;20.85;11.60;;;10.70;92.50;;;;;;6107090;23;20009;-92
2021/04/18 08:44:43;;;;;;;23.42;14.43;;;10.70;92.40;;;;;;6107431;23;20010;-92
2021/04/18 08:47:19;;;;;;;20.88;13.10;;;10.70;92.30;;;;;;6107719;23;20385;-90
2021/04/18 08:50:03;;;;;;;18.30;12.57;;;10.70;92.50;;;;;;6107324;23;20009;-91
2021/04/18 08:52:34;;;;;;;22.63;13.45;;;10.60;92.40;;;;;;6107409;23;20013;-92
2021/04/18 08:55:16;;;;;;;24.05;13.45;;;10.60;92.70;;;;;;6104878;23;20393;-92
2021/04/18 08:57:44;;;;;;;;;;;10.60;93.00;;;;;;6107959;23;20002;-92
2021/04/18 09:00:27;;;;;;;19.75;12.65;;;10.50;93.00;;;;;;6108079;23;19905;-93
2021/04/18 09:03:14;;;;;;;24.60;13.43;;;10.40;93.20;;;;;;6107180;23;20002;-92
2021/04/18 09:05:40;;;;;;;21.35;14.57;;;10.40;93.30;;;;;;6107631;23;20061;-92
2021/04/18 09:08:22;;;;;;;24.08;14.52;;;10.40;93.40;;;;;;6107119;23;20006;-92
2021/04/18 09:11:05;;;;;;;24.88;14.48;;;10.40;93.30;;;;;;6107569;23;20254;-92
2021/04/18 09:14:07;;;;;;;;;;;10.40;93.40;;;;;;6107651;23;20017;-91
2021/04/18 09:16:36;;;;;;;26.50;14.95;;;10.50;93.30;;;;;;6107188;23;19915;-91
2021/04/18 09:19:41;;;;;;;21.85;13.70;;;10.50;93.20;;;;;;6107343;23;20267;-91
2021/04/18 09:22:41;;;;;;;27.60;15.23;;;10.50;93.20;;;;;;6106658;23;20113;-90
2021/04/18 09:25:20;;;;;;;25.98;14.35;;;10.60;93.10;;;;;;6093486;23;20073;-91
2021/04/18 09:27:51;;;;;;;24.70;15.27;;;10.70;93.00;;;;;;6106897;23;20260;-91
2021/04/18 09:30:29;;;;;;;23.02;15.02;;;10.70;92.90;;;;;;6106771;23;20006;-92
2021/04/18 09:36:11;;;;;;;27.98;17.77;;;10.70;93.40;;;;;;6132245;23;20024;-91
2021/04/18 09:39:00;;;;;;;30.30;18.33;;;10.70;93.00;;;;;;6107516;23;20005;-91
2021/04/18 09:41:30;;;;;;;24.05;15.73;;;10.80;92.80;;;;;;6106949;23;20009;-90
2021/04/18 09:43:59;;;;;;;28.83;17.20;;;10.70;92.70;;;;;;6107695;23;20002;-91
2021/04/18 09:46:31;;;;;;;25.80;16.25;;;10.70;92.80;;;;;;6107247;23;20009;-91
2021/04/18 09:49:01;;;;;;;25.55;15.98;;;10.60;93.00;;;;;;6107220;23;20002;-90
2021/04/18 09:51:49;;;;;;;25.40;15.45;;;10.60;93.30;;;;;;6107593;23;20054;-90
2021/04/18 09:54:49;;;;;;;28.35;17.63;;;10.60;93.60;;;;;;6107350;23;20010;-90
2021/04/18 09:57:24;;;;;;;25.10;15.85;;;10.60;93.30;;;;;;6032705;23;20006;-90
2021/04/18 10:00:15;;;;;;;24.27;15.35;;;10.60;93.30;;;;;;6107577;23;20065;-91
2021/04/18 10:02:40;;;;;;;31.90;17.58;;;10.70;93.30;;;;;;6107378;23;20006;-92
2021/04/18 10:05:24;;;;;;;25.00;15.65;;;10.70;93.30;;;;;;6107454;23;20272;-90
2021/04/18 10:12:07;;;;;;;23.20;15.15;;;10.80;93.40;;;;;;6069225;23;20011;-92
2021/04/18 10:14:35;;;;;;;24.15;15.13;;;10.80;93.40;;;;;;6107792;23;20029;-92
2021/04/18 10:17:11;;;;;;;23.85;15.23;;;10.70;93.70;;;;;;6108624;23;20015;-91
2021/04/18 10:20:10;;;;;;;;;;;;;;;;;;;;;
2021/04/18 16:23:08;;;;;;;10.02;7.20;;;10.80;94.60;;;;;;6016691;23;20014;-92
2021/04/18 16:40:07;;;;;;;16.30;10.43;;;10.80;95.00;;;;;;6132975;23;20092;-92
2021/04/18 16:50:12;;;;;;;;;;;;;;;;;;;;;
2021/04/18 16:57:02;;;;;;;12.27;8.98;;;11.00;94.90;;;;;;5987070;24;20088;-93
2021/04/18 17:29:11;;;;;;;16.98;11.30;;;10.70;95.80;;;;;;6133210;23;20021;-92
2021/04/18 17:39:15;;;;;;;16.73;12.68;;;10.70;95.60;;;;;;6132831;23;20354;-92
2021/04/18 17:42:03;;;;;;;15.50;10.77;;;10.70;95.60;;;;;;6107308;23;20010;-93
2021/04/18 17:44:55;;;;;;;13.82;9.68;;;10.70;95.60;;;;;;6130847;23;20010;-94
2021/04/18 17:47:29;;;;;;;17.50;11.85;;;10.70;95.60;;;;;;6108261;23;20036;-93
2021/04/18 17:50:26;;;;;;;;;;;;;;;;;;;;;
2021/04/18 18:20:45;;;;;;;;;;;;;;;;;;;;;
2021/04/18 18:57:56;;;;;;;;;;;;;;;;;;;;;
2021/04/18 19:04:46;;;;;;;;;;;;;;;;;;;;;
2021/04/18 19:07:51;;;;;;;13.65;9.75;;;10.70;95.40;;;;;;6017733;23;20032;-93
2021/04/18 19:11:02;;;;;;;14.98;10.52;;;10.70;95.30;;;;;;6015153;23;20008;-93
2021/04/18 19:40:49;;;;;;;13.13;10.00;;;10.40;95.10;;;;;;5989466;24;20034;-94
2021/04/18 19:43:28;;;;;;;12.05;7.82;;;10.40;95.10;;;;;;5987403;24;20016;-93
2021/04/18 19:46:57;;;;;;;16.65;10.93;;;10.40;95.20;;;;;;5988631;24;20304;-93
2021/04/18 19:52:48;;;;;;;16.45;11.90;;;10.30;95.30;;;;;;6114702;23;20021;-94
2021/04/18 19:55:46;;;;;;;17.48;11.52;;;10.40;95.30;;;;;;6132883;23;20338;-93
2021/04/18 20:02:10;;;;;;;12.90;9.95;;;10.40;95.10;;;;;;6133164;23;20254;-94
2021/04/18 20:09:03;;;;;;;16.52;11.38;;;10.40;95.10;;;;;;6133122;23;20092;-95
2021/04/18 20:11:47;;;;;;;16.50;10.82;;;10.40;95.10;;;;;;6077366;23;20073;-94
2021/04/18 20:14:20;;;;;;;18.92;12.18;;;10.40;95.00;;;;;;6078039;23;20006;-93
2021/04/18 20:16:56;;;;;;;15.05;11.07;;;10.40;95.00;;;;;;6119738;23;20006;-95
2021/04/18 20:19:32;;;;;;;16.00;12.35;;;10.40;95.00;;;;;;6132203;23;20002;-93
2021/04/18 20:25:53;;;;;;;20.27;10.90;;;10.40;94.90;;;;;;6120397;23;20010;-94
2021/04/18 20:28:27;;;;;;;12.98;10.00;;;10.40;94.80;;;;;;6132540;23;20627;-95
2021/04/18 20:31:14;;;;;;;13.63;9.73;;;10.40;94.80;;;;;;6132023;23;20223;-95
2021/04/18 20:34:35;;;;;;;17.20;12.00;;;10.50;94.90;;;;;;6130979;23;20080;-94
2021/04/18 20:37:46;;;;;;;13.75;9.70;;;10.50;94.80;;;;;;6083719;23;20010;-96
2021/04/18 21:02:00;;;;;;;14.18;10.63;;;10.50;94.60;;;;;;6036068;23;20013;-94
2021/04/18 21:05:02;;;;;;;16.33;11.38;;;10.50;94.60;;;;;;5984121;24;20016;-93
2021/04/18 21:11:39;;;;;;;;;;;;;;;;;;;;;
2021/04/18 21:28:13;;;;;;;;;;;;;;;;;;;;;
2021/04/18 21:48:39;;;;;;;;;;;;;;;;;;;;;
2021/04/18 21:54:52;;;;;;;17.60;12.68;;;10.40;94.80;;;;;;5931222;24;20421;-94
2021/04/18 21:57:31;;;;;;;20.33;13.43;;;10.40;94.70;;;;;;5931981;24;20015;-92
2021/04/18 21:59:57;;;;;;;19.85;13.80;;;10.40;94.80;;;;;;5942087;23;20013;-93
2021/04/18 22:02:25;;;;;;;26.67;15.45;;;10.40;94.80;;;;;;5992075;23;20071;-93
2021/04/18 22:04:51;;;;;;;21.30;13.82;;;10.40;94.80;;;;;;6121626;23;20009;-93
2021/04/18 22:07:17;;;;;;;21.02;13.80;;;10.40;94.80;;;;;;6132613;23;20020;-93
2021/04/18 22:09:48;;;;;;;17.95;12.73;;;10.40;94.80;;;;;;6133875;23;20013;-92
2021/04/18 22:12:14;;;;;;;20.85;14.00;;;10.40;94.80;;;;;;6141109;23;20010;-93
2021/04/18 22:14:40;;;;;;;20.42;13.65;;;10.40;94.80;;;;;;6133791;23;20089;-93
2021/04/18 22:17:08;;;;;;;20.05;13.20;;;10.40;94.80;;;;;;6134169;23;19998;-93
2021/04/18 22:19:39;;;;;;;21.15;13.60;;;10.40;94.80;;;;;;6133926;23;19998;-93
2021/04/18 22:22:13;;;;;;;20.58;13.70;;;10.40;94.80;;;;;;6134125;23;20001;-93
2021/04/18 22:24:38;;;;;;;21.00;14.32;;;10.40;94.80;;;;;;6133922;23;20002;-93
2021/04/18 22:27:07;;;;;;;22.75;15.85;;;10.40;94.90;;;;;;6133703;23;20016;-94
2021/04/18 22:29:38;;;;;;;21.13;14.50;;;10.40;94.90;;;;;;6133576;23;20009;-92
2021/04/18 22:32:10;;;;;;;17.33;12.65;;;10.40;94.90;;;;;;6133782;23;20006;-94
2021/04/18 22:35:17;;;;;;;21.73;14.97;;;10.40;94.90;;;;;;6133577;23;20013;-94
2021/04/18 22:37:56;;;;;;;22.70;14.23;;;10.40;95.00;;;;;;6133167;23;20010;-94
2021/04/18 22:40:57;;;;;;;21.73;14.90;;;10.40;95.00;;;;;;6133708;23;20006;-94
2021/04/18 22:43:42;;;;;;;20.67;14.27;;;10.40;95.00;;;;;;6132960;23;20036;-94
2021/04/18 22:47:09;;;;;;;24.63;15.63;;;10.40;95.00;;;;;;6133216;23;20006;-94
2021/04/18 22:49:51;;;;;;;22.33;14.18;;;10.30;95.10;;;;;;6133308;23;20006;-93
2021/04/18 22:53:06;;;;;;;;;;;;;;;;;;;;;
2021/04/18 22:56:48;;;;;;;;;;;;;;;;;;;;;
2021/04/18 23:00:06;;;;;;;17.63;12.65;;;10.20;95.00;;;;;;6102131;23;20037;-94
2021/04/18 23:03:11;;;;;;;22.02;14.88;;;10.20;95.00;;;;;;6077148;23;20007;-93
2021/04/18 23:09:49;;;;;;;20.60;13.88;;;10.10;95.10;;;;;;6112270;23;20017;-93
2021/04/18 23:12:20;;;;;;;21.70;13.35;;;10.00;95.10;;;;;;6133036;23;20018;-93
2021/04/18 23:15:11;;;;;;;19.50;14.13;;;9.90;95.10;;;;;;6133497;23;20397;-92
2021/04/18 23:17:37;;;;;;;17.05;13.05;;;9.90;95.20;;;;;;6133050;23;20064;-93
2021/04/18 23:23:25;;;;;;;23.10;15.00;;;9.90;95.10;;;;;;6134108;23;20009;-93
2021/04/18 23:25:56;;;;;;;22.35;15.23;;;9.80;95.10;;;;;;6133284;23;20029;-93
2021/04/18 23:28:22;;;;;;;20.63;14.50;;;9.80;95.10;;;;;;6132721;23;20006;-92
2021/04/18 23:30:48;;;;;;;22.17;14.52;;;9.70;95.10;;;;;;6133005;23;20236;-92
2021/04/18 23:33:16;;;;;;;23.27;15.57;;;9.60;95.10;;;;;;6132966;23;20319;-92
2021/04/18 23:35:44;;;;;;;21.55;15.13;;;9.60;95.30;;;;;;6132680;23;20014;-92
2021/04/18 23:38:13;;;;;;;22.52;15.57;;;9.60;95.30;;;;;;6133333;23;20047;-92
2021/04/18 23:40:46;;;;;;;25.70;15.52;;;9.60;95.40;;;;;;6133072;23;20010;-90
2021/04/18 23:43:35;;;;;;;23.67;16.30;;;9.60;95.40;;;;;;6133184;23;20001;-92
2021/04/18 23:46:16;;;;;;;;;;;;;;;;;;;;;
2021/04/18 23:48:47;;;;;;;23.50;14.70;;;9.50;95.40;;;;;;6133756;23;20029;-92
2021/04/18 23:51:13;;;;;;;20.80;14.75;;;9.50;95.40;;;;;;6133152;23;20014;-92
2021/04/18 23:53:54;;;;;;;;;;;;;;;;;;;;;
2021/04/18 23:56:32;;;;;;;24.67;15.20;;;9.50;95.40;;;;;;6133451;23;20315;-92
2021/04/18 23:59:03;;;;;;;20.58;13.88;;;9.40;95.30;;;;;;6133439;23;20069;-92
